KMIE/MIE METAR and TAF weather

Enter ICAO airport designator
Station Type Date Time Source
KMIE METAR 2018/12/15 20:53 UTC NOAA

KMIE 152053Z 05010KT 10SM -RA OVC026 06/01 A2996 RMK AO2 RAB38 SLP146 P0000 60000 T00560011 56014


Station Type Date Time Source
KMIE Decoded METAR 2018/12/15 20:53 UTC NOAA

MUNCIE DELAWARE JOHNSON, IN, United States (KMIE) 40-14N 85-24W 285M
Dec 15, 2018 - 03:53 PM EST / 2018.12.15 2053 UTC
Wind: from the NE (050 degrees) at 12 MPH (10 KT):0
Visibility: 10 mile(s):0
Sky conditions: overcast
Weather: light rain
Precipitation last hour: A trace
Temperature: 42.1 F (5.6 C)
Dew Point: 34.0 F (1.1 C)
Relative Humidity: 72%
Pressure (altimeter): 29.96 in. Hg (1014 hPa)
Pressure tendency: 0.04 inches (1.4 hPa) lower than three hours ago
ob: KMIE 152053Z 05010KT 10SM -RA OVC026 06/01 A2996 RMK AO2 RAB38 SLP146 P0000 60000 T00560011 56014
cycle: 21

Station Type Date Time Source
KMIE TAF UTC NOAA

Error!


Example: see airport list